Time;durP1;ratioP1;P1;durP2;ratioP2;P2;SDS_P1;SDS_P2;PMS_P1;PMS_P2;Temp;Humidity;BMP_temperature;BMP_pressure;BME280_temperature;BME280_humidity;BME280_pressure;Samples;Min_cycle;Max_cycle;Signal;HPM_P1;HPM_P2
2023/01/30 00:01:44;;;;;;;53.70;23.10;;;-0.50;99.90;;;;;;5070886;28;20876;-66
2023/01/30 00:04:13;;;;;;;50.77;23.80;;;-0.50;99.90;;;;;;5070987;28;20448;-66
2023/01/30 00:06:40;;;;;;;58.30;24.63;;;-0.50;99.90;;;;;;5070754;28;20493;-66
2023/01/30 00:09:06;;;;;;;60.10;24.70;;;-0.40;99.90;;;;;;5070861;28;20475;-66
2023/01/30 00:11:33;;;;;;;49.70;23.30;;;-0.40;99.90;;;;;;5070489;28;20480;-67
2023/01/30 00:14:00;;;;;;;52.13;22.40;;;-0.40;99.90;;;;;;5070517;28;20452;-66
2023/01/30 00:16:27;;;;;;;56.00;22.93;;;-0.30;99.90;;;;;;5070629;28;20452;-66
2023/01/30 00:18:54;;;;;;;50.93;22.00;;;-0.30;99.90;;;;;;5070672;28;20452;-65
2023/01/30 00:21:22;;;;;;;49.17;23.23;;;-0.20;99.90;;;;;;5070238;28;20475;-66
2023/01/30 00:23:49;;;;;;;53.90;23.63;;;-0.30;99.90;;;;;;5070571;28;20475;-66
2023/01/30 00:26:15;;;;;;;55.37;24.27;;;-0.40;99.90;;;;;;5070149;28;20440;-67
2023/01/30 00:28:42;;;;;;;58.77;22.57;;;-0.40;99.90;;;;;;5070756;28;20885;-67
2023/01/30 00:31:09;;;;;;;54.30;22.40;;;-0.30;99.90;;;;;;5070302;28;20530;-66
2023/01/30 00:33:37;;;;;;;45.10;21.73;;;-0.30;99.90;;;;;;5070204;28;20451;-67
2023/01/30 00:36:05;;;;;;;51.37;22.63;;;-0.30;99.90;;;;;;5070022;28;20480;-67
2023/01/30 00:38:33;;;;;;;55.27;23.30;;;-0.30;99.90;;;;;;5070332;28;20989;-67
2023/01/30 00:40:59;;;;;;;50.17;22.30;;;-0.20;99.90;;;;;;5069655;28;20482;-67
2023/01/30 00:49:07;;;;;;;46.30;19.50;;;-0.20;99.90;;;;;;5068440;28;20444;-67
2023/01/30 00:51:34;;;;;;;50.87;20.80;;;-0.20;99.90;;;;;;5070144;28;20460;-66
2023/01/30 00:54:02;;;;;;;40.47;17.80;;;-0.10;99.90;;;;;;5069790;28;20784;-66
2023/01/30 00:56:28;;;;;;;46.67;19.50;;;0.00;99.90;;;;;;5069863;28;21168;-67
2023/01/30 00:58:55;;;;;;;50.87;19.07;;;0.10;99.90;;;;;;5069633;28;20448;-66
2023/01/30 01:01:21;;;;;;;43.83;18.73;;;0.20;99.90;;;;;;5069399;28;20526;-66
2023/01/30 01:03:48;;;;;;;47.47;18.63;;;0.20;99.90;;;;;;5069597;28;20502;-66
2023/01/30 01:06:15;;;;;;;45.50;19.40;;;0.30;99.90;;;;;;5069576;28;20986;-66
2023/01/30 01:08:41;;;;;;;43.33;18.03;;;0.30;99.90;;;;;;5069809;28;20501;-66
2023/01/30 01:11:09;;;;;;;45.77;17.77;;;0.30;99.90;;;;;;5069801;28;20988;-66
2023/01/30 01:13:36;;;;;;;41.93;18.30;;;0.30;99.90;;;;;;5069317;28;20440;-66
2023/01/30 01:16:03;;;;;;;37.37;16.27;;;0.30;99.90;;;;;;5069803;28;20488;-66
2023/01/30 01:18:29;;;;;;;39.97;19.93;;;0.30;99.90;;;;;;5069552;28;20456;-66
2023/01/30 01:20:56;;;;;;;47.90;21.90;;;0.30;99.90;;;;;;5069157;28;20443;-66
2023/01/30 01:23:22;;;;;;;48.43;19.97;;;0.30;99.90;;;;;;5069399;28;20797;-66
2023/01/30 01:25:49;;;;;;;47.07;21.03;;;0.30;99.90;;;;;;5069514;28;20521;-67
2023/01/30 01:28:21;;;;;;;43.40;19.50;;;0.30;99.90;;;;;;5069159;28;21139;-66
2023/01/30 01:30:47;;;;;;;45.80;20.70;;;0.30;99.90;;;;;;5069348;28;20475;-67
2023/01/30 01:33:14;;;;;;;48.97;20.40;;;0.30;99.90;;;;;;5069290;28;21405;-66
2023/01/30 01:35:41;;;;;;;39.93;17.97;;;0.30;99.90;;;;;;5068778;28;20538;-66
2023/01/30 01:38:07;;;;;;;50.13;21.50;;;0.30;99.90;;;;;;5069361;28;20501;-66
2023/01/30 01:43:21;;;;;;;45.70;20.13;;;0.20;99.90;;;;;;5068547;28;20594;-67
2023/01/30 01:45:51;;;;;;;47.47;20.30;;;0.20;99.90;;;;;;5068710;28;20490;-67
2023/01/30 01:48:23;;;;;;;49.17;20.33;;;0.20;99.90;;;;;;5069064;28;20490;-66
2023/01/30 01:50:53;;;;;;;46.03;19.90;;;0.20;99.90;;;;;;5069151;28;20444;-66
2023/01/30 01:53:25;;;;;;;47.27;21.40;;;0.20;99.90;;;;;;5068381;28;20452;-67
2023/01/30 01:55:55;;;;;;;51.77;21.80;;;0.10;99.90;;;;;;5068794;28;20487;-66
2023/01/30 01:58:27;;;;;;;45.70;19.67;;;0.10;99.90;;;;;;5068982;28;20513;-66
2023/01/30 02:00:56;;;;;;;47.87;20.13;;;0.10;99.90;;;;;;5068306;28;20933;-67
2023/01/30 02:03:25;;;;;;;41.60;18.57;;;0.20;99.90;;;;;;5068292;28;20811;-66
2023/01/30 02:05:57;;;;;;;38.63;17.77;;;0.20;99.90;;;;;;5068511;28;20502;-66
2023/01/30 02:08:27;;;;;;;31.60;14.80;;;0.40;99.90;;;;;;5069133;28;20506;-66
2023/01/30 02:10:58;;;;;;;30.57;14.13;;;0.60;99.90;;;;;;5068070;28;20455;-66
2023/01/30 02:13:27;;;;;;;31.70;14.27;;;0.80;99.90;;;;;;5068116;28;20448;-66
2023/01/30 02:15:55;;;;;;;37.83;15.37;;;1.00;99.90;;;;;;5067851;28;20519;-66
2023/01/30 02:18:22;;;;;;;26.13;12.80;;;1.00;99.90;;;;;;5068577;28;21010;-66
2023/01/30 02:21:17;;;;;;;29.37;14.77;;;1.10;99.90;;;;;;5067963;28;20443;-66
2023/01/30 02:24:15;;;;;;;35.43;14.57;;;1.20;99.90;;;;;;5068084;28;20862;-66
2023/01/30 02:27:09;;;;;;;31.07;13.73;;;1.30;99.90;;;;;;5068472;28;20490;-66
2023/01/30 02:30:21;;;;;;;32.03;13.90;;;1.30;99.90;;;;;;5068396;28;20460;-67
2023/01/30 02:32:59;;;;;;;30.13;14.13;;;1.40;99.90;;;;;;5067586;28;20557;-66
2023/01/30 02:35:32;;;;;;;27.70;12.07;;;1.40;99.90;;;;;;5068223;28;20492;-66
2023/01/30 02:38:12;;;;;;;26.13;13.87;;;1.40;99.90;;;;;;5068177;28;20448;-66
2023/01/30 02:40:49;;;;;;;28.73;13.53;;;1.50;99.90;;;;;;5067804;28;20497;-66
2023/01/30 02:43:24;;;;;;;26.50;13.60;;;1.50;99.90;;;;;;5068104;28;20930;-66
2023/01/30 02:45:56;;;;;;;28.90;14.50;;;1.50;99.90;;;;;;5067601;28;20923;-66
2023/01/30 02:48:30;;;;;;;24.33;13.53;;;1.60;99.90;;;;;;5068191;28;20440;-66
2023/01/30 02:51:01;;;;;;;23.10;12.77;;;1.60;99.90;;;;;;5067844;28;20521;-66
2023/01/30 02:53:31;;;;;;;27.77;12.97;;;1.60;99.90;;;;;;5066960;28;20448;-66
2023/01/30 02:55:58;;;;;;;27.27;13.30;;;1.70;99.90;;;;;;5066842;28;20558;-66
2023/01/30 02:58:26;;;;;;;28.90;12.67;;;1.70;99.90;;;;;;5068365;28;20448;-66
2023/01/30 03:01:14;;;;;;;22.23;12.10;;;1.70;99.90;;;;;;5067646;28;20944;-66
2023/01/30 03:03:58;;;;;;;28.03;13.63;;;1.70;99.90;;;;;;5067490;28;20504;-66
2023/01/30 03:06:38;;;;;;;27.90;11.80;;;1.90;99.90;;;;;;5067533;28;20440;-66
2023/01/30 03:09:15;;;;;;;28.80;14.20;;;1.80;99.90;;;;;;5067796;28;20448;-66
2023/01/30 03:11:47;;;;;;;26.37;12.23;;;1.80;99.90;;;;;;5066939;28;20971;-66
2023/01/30 03:14:26;;;;;;;24.30;11.87;;;1.80;99.90;;;;;;5067661;28;20455;-66
2023/01/30 03:16:56;;;;;;;22.00;12.20;;;1.80;99.90;;;;;;5067821;28;20491;-66
2023/01/30 03:19:26;;;;;;;23.70;11.93;;;1.80;99.90;;;;;;5067735;28;20444;-66
2023/01/30 03:21:53;;;;;;;23.90;11.90;;;1.80;99.90;;;;;;5067337;28;20479;-66
2023/01/30 03:24:19;;;;;;;21.40;11.40;;;1.80;99.90;;;;;;5066924;28;20881;-66
2023/01/30 03:26:52;;;;;;;22.20;10.80;;;1.80;99.90;;;;;;5067652;28;20448;-66
2023/01/30 03:29:18;;;;;;;18.47;9.30;;;1.90;99.90;;;;;;5067497;28;20928;-66
2023/01/30 03:31:45;;;;;;;29.20;12.20;;;1.90;99.90;;;;;;5067474;28;20464;-66
2023/01/30 03:34:11;;;;;;;25.13;11.93;;;1.90;99.90;;;;;;5067338;28;20509;-66
2023/01/30 03:36:39;;;;;;;23.07;11.27;;;2.00;99.90;;;;;;5067165;28;20476;-66
2023/01/30 03:39:07;;;;;;;20.13;11.83;;;2.10;99.90;;;;;;5067767;28;20521;-66
2023/01/30 03:41:34;;;;;;;24.90;12.10;;;2.10;99.90;;;;;;5067590;28;20895;-66
2023/01/30 03:44:00;;;;;;;24.40;12.30;;;2.10;99.90;;;;;;5066960;28;20471;-67
2023/01/30 03:46:27;;;;;;;22.37;11.47;;;2.10;99.90;;;;;;5067444;28;20547;-66
2023/01/30 03:48:53;;;;;;;27.10;11.67;;;2.20;99.90;;;;;;5067113;28;20440;-66
2023/01/30 03:51:20;;;;;;;20.47;10.97;;;2.20;99.90;;;;;;5067091;28;20488;-66
2023/01/30 03:53:48;;;;;;;24.40;10.07;;;2.30;99.90;;;;;;5066758;28;20455;-66
2023/01/30 03:56:15;;;;;;;22.10;10.57;;;2.30;99.90;;;;;;5067402;28;20488;-66
2023/01/30 03:58:41;;;;;;;19.70;10.87;;;2.30;99.90;;;;;;5067390;28;20452;-66
2023/01/30 04:01:08;;;;;;;19.80;9.57;;;2.30;99.90;;;;;;5066771;28;21290;-65
2023/01/30 04:03:35;;;;;;;20.33;10.00;;;2.30;99.90;;;;;;5066835;28;20455;-66
2023/01/30 04:06:01;;;;;;;23.20;11.20;;;2.30;99.90;;;;;;5067373;28;20551;-66
2023/01/30 04:08:28;;;;;;;22.30;10.90;;;2.30;99.90;;;;;;5070299;28;20456;-65
2023/01/30 04:10:56;;;;;;;23.53;11.70;;;2.30;99.90;;;;;;5070599;28;20452;-66
2023/01/30 04:13:23;;;;;;;27.73;11.13;;;2.30;99.90;;;;;;5070569;28;20529;-66
2023/01/30 04:15:49;;;;;;;20.17;10.13;;;2.40;99.90;;;;;;5070166;28;20488;-66
2023/01/30 04:18:16;;;;;;;15.83;7.57;;;2.30;99.90;;;;;;5071092;28;20447;-66
2023/01/30 04:20:42;;;;;;;17.63;10.20;;;2.40;99.90;;;;;;5070686;28;20459;-66
2023/01/30 04:23:09;;;;;;;22.30;11.03;;;2.30;99.90;;;;;;5070146;28;20488;-66
2023/01/30 04:25:36;;;;;;;25.60;12.37;;;2.20;99.90;;;;;;5070299;28;20443;-66
2023/01/30 04:28:04;;;;;;;23.50;12.10;;;2.30;99.90;;;;;;5070383;28;20510;-66
2023/01/30 04:30:31;;;;;;;24.10;11.20;;;2.20;99.90;;;;;;5070230;28;20459;-66
2023/01/30 04:32:57;;;;;;;18.77;10.23;;;2.20;99.90;;;;;;5069802;28;20484;-66
2023/01/30 04:35:24;;;;;;;23.03;11.60;;;2.20;99.90;;;;;;5070330;28;20452;-66
2023/01/30 04:37:50;;;;;;;16.27;8.33;;;2.20;99.90;;;;;;5070089;28;20448;-65
2023/01/30 04:40:17;;;;;;;22.23;10.00;;;2.20;99.90;;;;;;5070258;28;20500;-66
2023/01/30 04:42:44;;;;;;;18.07;10.53;;;2.20;99.90;;;;;;5069913;28;20521;-65
2023/01/30 04:45:12;;;;;;;19.90;10.13;;;2.20;99.90;;;;;;5069484;28;20863;-66
2023/01/30 04:47:39;;;;;;;21.40;10.60;;;2.30;99.90;;;;;;5070242;28;20441;-66
2023/01/30 04:50:06;;;;;;;23.50;12.00;;;2.30;99.90;;;;;;5070291;28;20467;-66
2023/01/30 04:52:33;;;;;;;31.73;12.40;;;2.30;99.90;;;;;;5069912;28;20463;-66
2023/01/30 04:54:59;;;;;;;23.47;12.17;;;2.30;99.90;;;;;;5068904;28;20464;-66
2023/01/30 04:57:26;;;;;;;21.60;10.67;;;2.40;99.90;;;;;;5070239;28;20496;-66
2023/01/30 04:59:53;;;;;;;20.40;11.40;;;2.40;99.90;;;;;;5069800;28;20506;-66
2023/01/30 05:02:20;;;;;;;24.37;13.03;;;2.40;99.90;;;;;;5069463;28;20970;-64
2023/01/30 05:04:49;;;;;;;21.77;11.83;;;2.40;99.90;;;;;;5069190;28;20522;-63
2023/01/30 05:07:15;;;;;;;22.27;11.77;;;2.40;99.90;;;;;;5069570;28;20505;-65
2023/01/30 05:09:42;;;;;;;22.90;11.77;;;2.40;99.90;;;;;;5069802;28;20498;-67
2023/01/30 05:12:09;;;;;;;24.73;13.30;;;2.30;99.90;;;;;;5069785;28;20468;-66
2023/01/30 05:14:35;;;;;;;22.00;10.87;;;2.40;99.90;;;;;;5069535;28;20448;-66
2023/01/30 05:17:02;;;;;;;18.17;10.20;;;2.40;99.90;;;;;;5069389;28;20529;-66
2023/01/30 05:19:30;;;;;;;25.10;13.27;;;2.40;99.90;;;;;;5068769;28;20456;-67
2023/01/30 05:21:56;;;;;;;29.77;13.03;;;2.50;99.90;;;;;;5068827;28;20533;-66
2023/01/30 05:24:23;;;;;;;22.53;11.90;;;2.40;99.90;;;;;;5069213;28;21021;-66
2023/01/30 05:26:50;;;;;;;24.97;11.70;;;2.40;99.90;;;;;;5069576;28;20490;-66
2023/01/30 05:29:16;;;;;;;21.13;11.53;;;2.40;99.90;;;;;;5069523;28;21200;-66
2023/01/30 05:31:43;;;;;;;30.37;13.13;;;2.50;99.90;;;;;;5069226;28;20476;-66
2023/01/30 05:34:11;;;;;;;24.37;12.87;;;2.50;99.90;;;;;;5068863;28;20544;-66
2023/01/30 05:36:39;;;;;;;26.20;11.43;;;2.40;99.90;;;;;;5068681;28;20480;-66
2023/01/30 05:39:06;;;;;;;28.67;13.50;;;2.40;99.90;;;;;;5069370;28;20533;-66
2023/01/30 05:41:32;;;;;;;25.23;14.33;;;2.40;99.90;;;;;;5069329;28;20460;-66
2023/01/30 05:43:59;;;;;;;24.17;13.07;;;2.40;99.90;;;;;;5068737;28;20452;-66
2023/01/30 05:46:26;;;;;;;31.20;11.13;;;2.40;99.90;;;;;;5069021;28;20445;-66
2023/01/30 05:48:53;;;;;;;26.03;12.40;;;2.40;99.90;;;;;;5069236;28;20498;-66
2023/01/30 05:51:21;;;;;;;23.90;11.40;;;2.40;99.90;;;;;;5068607;28;20509;-66
2023/01/30 05:53:50;;;;;;;23.97;12.07;;;2.40;99.90;;;;;;5067955;28;20474;-66
2023/01/30 05:56:17;;;;;;;21.87;10.50;;;2.40;99.90;;;;;;5068797;28;20537;-66
2023/01/30 05:58:49;;;;;;;24.23;11.97;;;2.40;99.90;;;;;;5069124;28;20526;-66
2023/01/30 06:01:15;;;;;;;21.53;12.13;;;2.40;99.90;;;;;;5068278;28;20533;-66
2023/01/30 06:03:42;;;;;;;27.53;11.67;;;2.40;99.90;;;;;;5068755;28;21017;-66
2023/01/30 06:06:11;;;;;;;26.00;13.03;;;2.40;99.90;;;;;;5068530;28;20444;-66
2023/01/30 06:08:38;;;;;;;22.47;11.47;;;2.40;99.90;;;;;;5068578;28;20443;-66
2023/01/30 06:11:08;;;;;;;24.70;12.47;;;2.40;99.90;;;;;;5068383;28;20490;-66
2023/01/30 06:13:35;;;;;;;27.00;12.87;;;2.30;99.90;;;;;;5068363;28;20448;-66
2023/01/30 06:16:01;;;;;;;28.37;11.97;;;2.30;99.90;;;;;;5068017;28;21008;-66
2023/01/30 06:18:28;;;;;;;29.33;14.20;;;2.30;99.90;;;;;;5068800;28;20518;-66
2023/01/30 06:20:55;;;;;;;26.80;13.20;;;2.30;99.90;;;;;;5068244;28;20460;-66
2023/01/30 06:23:23;;;;;;;30.47;14.47;;;2.30;99.90;;;;;;5068310;28;20577;-66
2023/01/30 06:25:51;;;;;;;30.40;15.07;;;2.20;99.90;;;;;;5068172;28;20564;-66
2023/01/30 06:28:19;;;;;;;28.53;14.10;;;2.20;99.90;;;;;;5068269;28;20514;-66
2023/01/30 06:30:46;;;;;;;27.83;14.40;;;2.10;99.90;;;;;;5068145;28;20479;-67
2023/01/30 06:33:13;;;;;;;22.30;11.03;;;2.10;99.90;;;;;;5066241;28;21021;-66
2023/01/30 06:35:40;;;;;;;23.60;13.70;;;2.10;99.90;;;;;;5064162;28;20451;-66
2023/01/30 06:38:10;;;;;;;24.53;12.60;;;2.20;99.90;;;;;;5067385;28;20492;-66
2023/01/30 06:40:36;;;;;;;19.07;10.43;;;2.30;99.90;;;;;;5068124;28;20452;-66
2023/01/30 06:43:03;;;;;;;17.40;9.83;;;2.40;99.90;;;;;;5066305;28;20534;-66
2023/01/30 06:45:31;;;;;;;16.40;9.43;;;2.60;99.90;;;;;;5068120;28;20498;-66
2023/01/30 06:47:58;;;;;;;21.90;9.93;;;2.60;99.90;;;;;;5068208;28;20497;-66
2023/01/30 06:50:27;;;;;;;17.00;9.77;;;2.70;99.90;;;;;;5068049;28;20494;-65
2023/01/30 06:52:54;;;;;;;18.30;10.30;;;2.70;99.90;;;;;;5066529;28;20980;-66
2023/01/30 06:55:23;;;;;;;20.00;9.70;;;2.80;99.90;;;;;;5067859;28;20501;-66
2023/01/30 06:57:50;;;;;;;17.07;9.60;;;2.80;99.90;;;;;;5067917;28;20491;-66
2023/01/30 07:00:19;;;;;;;20.90;10.70;;;2.80;99.90;;;;;;5067374;28;20460;-66
2023/01/30 07:02:47;;;;;;;17.80;9.63;;;2.90;99.90;;;;;;5067692;28;20533;-67
2023/01/30 07:05:14;;;;;;;14.37;8.50;;;2.90;99.90;;;;;;5066836;28;20897;-67
2023/01/30 07:07:40;;;;;;;21.10;10.00;;;2.90;99.90;;;;;;5067301;28;20456;-67
2023/01/30 07:10:08;;;;;;;16.27;9.17;;;3.00;99.90;;;;;;5067359;28;20525;-67
2023/01/30 07:12:35;;;;;;;16.57;9.37;;;3.00;99.90;;;;;;5066665;28;20581;-67
2023/01/30 07:15:03;;;;;;;15.17;9.20;;;3.00;99.90;;;;;;5066432;28;20448;-66
2023/01/30 07:17:29;;;;;;;18.87;9.00;;;3.00;99.90;;;;;;5066388;28;20486;-67
2023/01/30 07:19:57;;;;;;;15.63;8.37;;;3.00;99.90;;;;;;5064662;28;20460;-67
2023/01/30 07:22:24;;;;;;;12.40;7.50;;;2.90;99.90;;;;;;5065237;28;20476;-68
2023/01/30 07:24:50;;;;;;;13.93;8.27;;;2.90;99.90;;;;;;5062650;28;20460;-67
2023/01/30 07:27:17;;;;;;;11.70;6.77;;;3.00;99.90;;;;;;5064713;28;20440;-66
2023/01/30 07:29:44;;;;;;;12.80;8.10;;;3.00;99.90;;;;;;5066660;28;20521;-67
2023/01/30 07:32:17;;;;;;;11.40;7.83;;;3.00;99.90;;;;;;5066772;28;21056;-66
2023/01/30 07:34:44;;;;;;;11.67;7.67;;;3.00;99.90;;;;;;5065805;28;20460;-67
2023/01/30 07:37:12;;;;;;;11.60;7.50;;;3.00;99.90;;;;;;5066488;28;20484;-68
2023/01/30 07:39:38;;;;;;;12.00;7.53;;;3.00;99.90;;;;;;5066312;28;20463;-66
2023/01/30 07:42:05;;;;;;;12.10;6.90;;;3.10;99.90;;;;;;5065777;28;20549;-67
2023/01/30 07:44:33;;;;;;;10.10;6.90;;;3.10;99.90;;;;;;5069187;28;20456;-66
2023/01/30 07:46:59;;;;;;;10.40;7.40;;;3.00;99.90;;;;;;5069902;28;20455;-67
2023/01/30 07:49:26;;;;;;;9.30;6.83;;;3.10;99.90;;;;;;5069702;28;20502;-66
2023/01/30 07:51:53;;;;;;;10.90;6.70;;;3.10;99.90;;;;;;5070231;28;20487;-66
2023/01/30 07:54:21;;;;;;;8.20;5.87;;;3.10;99.90;;;;;;5070066;28;20452;-67
2023/01/30 07:56:47;;;;;;;10.90;7.30;;;3.10;99.90;;;;;;5069486;28;21052;-65
2023/01/30 07:59:14;;;;;;;8.30;5.90;;;3.20;99.90;;;;;;5070222;28;20451;-66
2023/01/30 08:01:41;;;;;;;8.23;5.63;;;3.20;99.90;;;;;;5069684;28;20521;-65
2023/01/30 08:04:07;;;;;;;8.73;5.83;;;3.20;99.90;;;;;;5070019;28;20459;-67
2023/01/30 08:06:37;;;;;;;9.03;5.80;;;3.20;99.90;;;;;;5070283;28;20455;-67
2023/01/30 08:09:04;;;;;;;11.07;6.30;;;3.20;99.90;;;;;;5069778;28;20466;-67
2023/01/30 08:11:32;;;;;;;7.73;5.83;;;3.20;99.90;;;;;;5069659;28;20471;-68
2023/01/30 08:13:59;;;;;;;8.93;4.90;;;3.30;99.90;;;;;;5069700;28;20455;-68
2023/01/30 08:16:26;;;;;;;10.20;7.17;;;3.30;99.90;;;;;;5067750;28;20475;-67
2023/01/30 08:18:52;;;;;;;6.90;5.43;;;3.30;99.90;;;;;;5069499;28;20467;-67
2023/01/30 08:21:19;;;;;;;8.30;5.53;;;3.30;99.90;;;;;;5069204;28;20480;-67
2023/01/30 08:23:46;;;;;;;7.37;4.40;;;3.30;99.90;;;;;;5069445;28;20878;-68
2023/01/30 08:26:12;;;;;;;4.10;3.40;;;3.30;99.90;;;;;;5069563;28;20482;-67
2023/01/30 08:28:40;;;;;;;6.57;4.90;;;3.30;99.90;;;;;;5069178;28;20486;-67
2023/01/30 08:31:10;;;;;;;5.53;4.17;;;3.40;99.90;;;;;;5069101;28;20512;-67
2023/01/30 08:33:37;;;;;;;6.03;4.10;;;3.40;99.90;;;;;;5068507;28;20459;-66
2023/01/30 08:36:04;;;;;;;4.87;4.30;;;3.40;99.90;;;;;;5069411;28;20520;-68
2023/01/30 08:38:30;;;;;;;4.20;3.50;;;3.40;99.90;;;;;;5068658;28;21070;-67
2023/01/30 08:40:59;;;;;;;7.10;5.27;;;3.40;99.90;;;;;;5068815;28;20537;-67
2023/01/30 08:43:26;;;;;;;5.23;4.00;;;3.40;99.90;;;;;;5069173;28;20459;-68
2023/01/30 08:45:55;;;;;;;7.40;5.00;;;3.40;99.90;;;;;;5068903;28;20444;-67
2023/01/30 08:48:22;;;;;;;4.50;3.90;;;3.40;99.90;;;;;;5068916;28;20509;-67
2023/01/30 08:50:51;;;;;;;4.17;3.77;;;3.40;99.90;;;;;;5068648;28;20452;-67
2023/01/30 08:53:18;;;;;;;4.70;4.30;;;3.50;99.90;;;;;;5068844;28;20456;-67
2023/01/30 08:55:45;;;;;;;6.70;4.30;;;3.50;99.90;;;;;;5068136;28;20452;-67
2023/01/30 08:58:11;;;;;;;4.60;3.30;;;3.60;99.90;;;;;;5068162;28;20637;-68
2023/01/30 09:00:38;;;;;;;4.13;3.73;;;3.70;99.90;;;;;;5068798;28;20490;-67
2023/01/30 09:03:07;;;;;;;4.20;3.60;;;3.80;99.90;;;;;;5068733;28;20480;-67
2023/01/30 09:05:34;;;;;;;3.57;3.27;;;3.80;99.90;;;;;;5067056;28;20460;-67
2023/01/30 09:08:00;;;;;;;3.63;3.13;;;3.90;99.90;;;;;;5068502;28;20447;-68
2023/01/30 09:10:27;;;;;;;3.60;3.30;;;3.90;99.90;;;;;;5067984;28;20510;-68
2023/01/30 09:12:54;;;;;;;3.43;3.00;;;3.90;99.90;;;;;;5067549;28;20475;-67
2023/01/30 09:15:20;;;;;;;3.67;3.37;;;3.90;99.90;;;;;;5068356;28;20448;-67
2023/01/30 09:17:47;;;;;;;3.17;2.87;;;4.00;99.90;;;;;;5067952;28;20484;-67
2023/01/30 09:20:15;;;;;;;3.83;2.70;;;4.20;99.90;;;;;;5067847;28;20521;-67
2023/01/30 09:22:41;;;;;;;3.27;2.97;;;4.20;99.90;;;;;;5067293;28;21068;-67
2023/01/30 09:25:09;;;;;;;2.60;2.40;;;4.20;99.90;;;;;;5067042;28;21033;-67
2023/01/30 09:27:35;;;;;;;4.77;3.00;;;4.10;99.90;;;;;;5069216;28;20529;-68
2023/01/30 09:30:02;;;;;;;3.17;2.87;;;4.30;99.90;;;;;;5068361;28;20478;-67
2023/01/30 09:32:29;;;;;;;2.60;2.40;;;4.40;99.90;;;;;;5067323;28;20468;-67
2023/01/30 09:34:55;;;;;;;2.70;2.50;;;4.40;99.90;;;;;;5067770;28;20444;-67
2023/01/30 09:37:23;;;;;;;2.67;2.40;;;4.30;99.90;;;;;;5068619;28;21096;-67
2023/01/30 09:39:50;;;;;;;3.30;3.00;;;4.30;99.90;;;;;;5068261;28;20448;-67
2023/01/30 09:42:51;;;;;;;3.93;3.00;;;4.30;99.90;;;;;;5068257;28;20484;-67
2023/01/30 09:45:37;;;;;;;2.57;2.40;;;4.30;99.90;;;;;;5039417;28;20557;-67
2023/01/30 09:48:13;;;;;;;2.60;2.40;;;4.30;99.90;;;;;;5067899;28;20448;-67
2023/01/30 09:50:51;;;;;;;2.37;2.27;;;4.30;99.90;;;;;;5067524;28;20451;-67
2023/01/30 09:53:25;;;;;;;2.90;2.33;;;4.30;99.90;;;;;;5066795;28;20447;-67
2023/01/30 09:55:52;;;;;;;2.77;2.57;;;4.30;99.90;;;;;;5067968;28;21009;-67
2023/01/30 09:58:21;;;;;;;2.60;2.40;;;4.40;99.90;;;;;;5065602;28;21055;-67
2023/01/30 10:00:49;;;;;;;2.80;2.60;;;4.30;99.90;;;;;;5064627;28;20464;-68
2023/01/30 10:03:18;;;;;;;2.57;2.37;;;4.30;99.90;;;;;;5067768;28;20456;-68
2023/01/30 10:05:48;;;;;;;2.20;2.10;;;4.30;99.90;;;;;;5064155;28;20466;-68
2023/01/30 10:08:32;;;;;;;2.83;2.63;;;4.60;99.90;;;;;;5066507;28;20452;-68
2023/01/30 10:11:06;;;;;;;5.80;2.80;;;4.70;99.90;;;;;;5067523;28;20452;-68
2023/01/30 10:13:48;;;;;;;2.80;2.60;;;4.70;99.90;;;;;;5065942;28;20448;-68
2023/01/30 10:16:21;;;;;;;3.00;2.77;;;4.70;99.90;;;;;;5066976;28;20455;-68
2023/01/30 10:19:01;;;;;;;3.30;3.10;;;4.80;99.90;;;;;;5066548;28;20483;-68
2023/01/30 10:21:39;;;;;;;6.27;3.30;;;5.20;99.90;;;;;;5067524;28;20487;-68
2023/01/30 10:24:29;;;;;;;3.03;2.70;;;5.30;99.90;;;;;;5067090;28;21356;-68
2023/01/30 10:26:57;;;;;;;4.20;3.10;;;5.30;99.90;;;;;;5066471;28;20444;-68
2023/01/30 10:29:30;;;;;;;3.30;3.00;;;5.40;99.90;;;;;;5067311;28;20448;-68
2023/01/30 10:32:02;;;;;;;3.33;2.60;;;5.30;99.90;;;;;;5066075;28;20467;-68
2023/01/30 10:34:34;;;;;;;6.37;3.10;;;5.30;99.90;;;;;;5066661;28;20514;-68
2023/01/30 10:37:07;;;;;;;3.60;2.90;;;5.20;99.90;;;;;;5066953;28;21009;-68
2023/01/30 10:39:44;;;;;;;3.63;3.30;;;5.10;99.90;;;;;;5066212;28;20541;-67
2023/01/30 10:42:13;;;;;;;3.10;2.83;;;5.20;99.90;;;;;;5067476;28;20483;-68
2023/01/30 10:44:41;;;;;;;7.10;3.30;;;5.40;99.90;;;;;;5067046;28;20505;-68
2023/01/30 10:47:31;;;;;;;4.93;2.97;;;5.70;99.90;;;;;;5066437;28;20460;-67
2023/01/30 10:50:02;;;;;;;6.17;3.70;;;6.00;99.90;;;;;;5067205;28;20454;-68
2023/01/30 10:52:41;;;;;;;3.70;2.40;;;6.10;99.90;;;;;;5066238;28;20491;-68
2023/01/30 10:55:14;;;;;;;2.50;2.40;;;6.30;99.90;;;;;;5065102;28;20502;-68
2023/01/30 10:57:53;;;;;;;7.53;2.97;;;6.50;99.90;;;;;;5066405;28;20496;-68
2023/01/30 11:00:28;;;;;;;3.70;2.77;;;6.30;99.90;;;;;;5066413;28;20452;-68
2023/01/30 11:03:09;;;;;;;7.43;2.80;;;6.10;99.90;;;;;;5066975;28;20475;-67
2023/01/30 11:05:42;;;;;;;3.73;3.17;;;6.30;99.90;;;;;;5066111;28;20863;-68
2023/01/30 11:08:20;;;;;;;5.67;3.43;;;6.20;99.90;;;;;;5064503;28;20447;-67
2023/01/30 11:10:48;;;;;;;3.07;2.73;;;6.00;99.90;;;;;;5066453;28;20441;-68
2023/01/30 11:13:18;;;;;;;7.93;3.97;;;5.80;99.90;;;;;;5066062;28;20448;-68
2023/01/30 11:15:48;;;;;;;8.83;4.90;;;5.70;99.90;;;;;;5066473;28;20962;-67
2023/01/30 11:18:16;;;;;;;22.53;7.83;;;5.50;99.90;;;;;;5068346;28;20518;-69
2023/01/30 11:20:45;;;;;;;15.00;7.50;;;5.40;99.90;;;;;;5069509;28;20493;-67
2023/01/30 11:23:24;;;;;;;5.60;3.20;;;5.30;99.90;;;;;;5069854;28;20492;-68
2023/01/30 11:25:55;;;;;;;3.53;2.90;;;5.30;99.90;;;;;;5070053;28;20493;-68
2023/01/30 11:28:22;;;;;;;8.00;3.50;;;5.30;99.90;;;;;;5069637;28;20827;-68
2023/01/30 11:30:53;;;;;;;6.30;2.97;;;5.30;99.90;;;;;;5069891;28;20452;-68
2023/01/30 11:33:21;;;;;;;4.47;2.97;;;5.20;99.90;;;;;;5070104;28;20460;-69
2023/01/30 11:35:54;;;;;;;4.77;2.90;;;5.20;99.90;;;;;;5069359;28;20887;-67
2023/01/30 11:38:23;;;;;;;7.13;2.97;;;5.20;99.90;;;;;;5070258;28;20487;-67
2023/01/30 11:41:00;;;;;;;3.27;2.97;;;5.20;99.90;;;;;;5069101;28;21073;-67
2023/01/30 11:43:28;;;;;;;3.40;2.20;;;5.10;99.90;;;;;;5070567;28;20561;-68
2023/01/30 11:45:55;;;;;;;25.03;2.97;;;5.10;99.90;;;;;;5062660;28;20460;-67
2023/01/30 11:48:26;;;;;;;7.33;2.93;;;5.20;99.90;;;;;;5066748;28;20460;-68
2023/01/30 11:51:00;;;;;;;3.20;2.90;;;5.20;99.90;;;;;;5066477;28;21655;-68
2023/01/30 11:53:33;;;;;;;3.93;2.93;;;5.20;99.90;;;;;;5066194;28;20509;-69
2023/01/30 11:56:08;;;;;;;3.13;2.60;;;5.30;99.90;;;;;;5066905;28;20534;-67
2023/01/30 11:58:38;;;;;;;4.00;3.03;;;5.40;99.90;;;;;;5064127;28;20487;-69
2023/01/30 12:01:07;;;;;;;12.13;3.90;;;5.40;99.90;;;;;;5065695;28;20452;-68
2023/01/30 12:03:39;;;;;;;10.30;3.17;;;5.50;99.90;;;;;;5067500;28;20448;-69
2023/01/30 12:06:06;;;;;;;5.97;3.20;;;5.60;99.90;;;;;;5064351;28;20456;-67
2023/01/30 12:08:43;;;;;;;7.07;3.13;;;5.50;99.90;;;;;;5064578;28;20456;-67
2023/01/30 12:11:31;;;;;;;7.60;3.40;;;5.50;99.90;;;;;;5067261;28;20475;-67
2023/01/30 12:14:15;;;;;;;7.10;3.23;;;5.40;99.90;;;;;;5065619;28;20452;-68
2023/01/30 12:16:52;;;;;;;7.43;3.33;;;5.50;99.90;;;;;;5066080;28;20814;-67
2023/01/30 12:19:33;;;;;;;4.70;3.10;;;5.40;99.90;;;;;;5067619;28;21672;-66
2023/01/30 12:22:08;;;;;;;5.30;3.40;;;5.50;99.90;;;;;;5068941;28;20479;-67
2023/01/30 12:24:40;;;;;;;8.00;3.20;;;5.50;99.90;;;;;;5069771;28;20517;-68
2023/01/30 12:27:17;;;;;;;15.10;4.77;;;5.50;99.90;;;;;;5068574;28;20451;-69
2023/01/30 12:29:56;;;;;;;7.00;3.30;;;5.50;99.90;;;;;;5067677;28;20455;-67
2023/01/30 12:32:28;;;;;;;5.20;3.43;;;5.30;99.90;;;;;;5069204;28;21345;-68
2023/01/30 12:34:55;;;;;;;9.30;3.50;;;5.30;99.90;;;;;;5069046;28;20436;-68
2023/01/30 12:37:38;;;;;;;5.87;4.23;;;5.70;99.90;;;;;;5069996;28;20448;-68
2023/01/30 12:40:14;;;;;;;7.40;3.80;;;6.30;99.90;;;;;;5069199;28;20484;-67
2023/01/30 12:43:12;;;;;;;3.43;2.97;;;6.70;99.90;;;;;;5069631;28;20904;-68
2023/01/30 12:45:47;;;;;;;8.17;3.17;;;6.40;99.90;;;;;;5070173;28;20487;-69
2023/01/30 12:48:47;;;;;;;5.03;3.50;;;6.30;99.90;;;;;;5069083;28;20920;-68
2023/01/30 12:51:27;;;;;;;8.53;3.90;;;6.30;99.90;;;;;;5069583;28;20479;-69
2023/01/30 12:54:00;;;;;;;11.17;3.70;;;6.20;99.90;;;;;;5069328;28;20482;-68
2023/01/30 12:56:38;;;;;;;5.87;3.00;;;6.20;99.90;;;;;;5069417;28;20452;-69
2023/01/30 12:59:11;;;;;;;10.03;3.57;;;6.10;99.90;;;;;;5069618;28;20993;-68
2023/01/30 13:01:53;;;;;;;7.43;3.10;;;6.10;99.90;;;;;;5068318;28;20480;-68
2023/01/30 13:04:29;;;;;;;13.23;3.60;;;6.00;99.90;;;;;;5069830;28;20545;-69
2023/01/30 13:07:08;;;;;;;8.63;3.30;;;6.10;99.90;;;;;;5069205;28;20455;-69
2023/01/30 13:09:54;;;;;;;8.90;3.37;;;6.10;99.90;;;;;;5069343;28;20439;-69